createdAt,value
2018-10-09T00:00:22.905Z,47.89
2018-10-09T00:02:48.887Z,46.98
2018-10-09T00:05:14.819Z,46.99
2018-10-09T00:07:40.792Z,47.58
2018-10-09T00:10:06.751Z,47.68
2018-10-09T00:12:32.719Z,47.13
2018-10-09T00:14:58.653Z,47.78
2018-10-09T00:17:24.623Z,47.33
2018-10-09T00:19:50.564Z,47.77
2018-10-09T00:22:16.591Z,48.36
2018-10-09T00:24:42.544Z,48.45
2018-10-09T00:27:08.539Z,47.54
2018-10-09T00:29:34.495Z,46.99
2018-10-09T00:32:00.459Z,48.02
2018-10-09T00:34:26.389Z,47.42
2018-10-09T00:36:52.376Z,47.83
2018-10-09T00:39:18.322Z,47.66
2018-10-09T00:41:44.307Z,47.85
2018-10-09T00:44:10.277Z,47.78
2018-10-09T00:46:36.247Z,48.76
2018-10-09T00:49:02.210Z,48.80
2018-10-09T00:51:28.178Z,48.36
2018-10-09T00:53:54.179Z,48.32
2018-10-09T00:56:20.125Z,47.84
2018-10-09T00:58:46.074Z,47.49
2018-10-09T01:01:12.041Z,48.22
2018-10-09T01:03:37.982Z,48.13
2018-10-09T01:06:03.934Z,48.33
2018-10-09T01:08:29.899Z,48.06
2018-10-09T01:10:55.856Z,48.19
2018-10-09T01:13:21.842Z,48.76
2018-10-09T01:15:47.776Z,48.96
2018-10-09T01:18:13.743Z,48.34
2018-10-09T01:20:39.667Z,48.73
2018-10-09T01:23:05.638Z,48.41
2018-10-09T01:25:31.588Z,48.48
2018-10-09T01:27:57.528Z,48.58
2018-10-09T01:30:23.516Z,49.59
2018-10-09T01:32:49.479Z,49.56
2018-10-09T01:35:15.443Z,49.29
2018-10-09T01:37:41.395Z,48.42
2018-10-09T01:40:07.419Z,48.99
2018-10-09T01:42:33.402Z,48.64
2018-10-09T01:44:59.364Z,48.65
2018-10-09T01:47:25.308Z,48.63
2018-10-09T01:49:51.260Z,48.44
2018-10-09T01:52:17.201Z,48.93
2018-10-09T01:54:43.126Z,48.48
2018-10-09T01:57:09.114Z,48.77
2018-10-09T01:59:35.071Z,48.34
2018-10-09T02:02:00.996Z,48.82
2018-10-09T02:04:26.923Z,48.75
2018-10-09T02:06:52.857Z,48.63
2018-10-09T02:09:18.813Z,48.67
2018-10-09T02:11:44.758Z,48.38
2018-10-09T02:14:10.698Z,48.33
2018-10-09T02:16:36.634Z,48.35
2018-10-09T02:19:02.593Z,48.05
2018-10-09T02:21:28.559Z,48.40
2018-10-09T02:23:54.533Z,48.27
2018-10-09T02:26:20.471Z,48.11
2018-10-09T02:28:46.440Z,47.96
2018-10-09T02:31:12.385Z,48.60
2018-10-09T02:33:38.372Z,48.62
2018-10-09T02:36:04.358Z,48.15
2018-10-09T02:38:30.294Z,47.99
2018-10-09T02:40:56.247Z,48.84
2018-10-09T02:43:22.189Z,48.44
2018-10-09T02:45:48.138Z,49.08
2018-10-09T02:48:14.092Z,48.33
2018-10-09T02:50:40.165Z,48.37
2018-10-09T02:53:06.115Z,48.89
2018-10-09T02:55:32.078Z,48.87
2018-10-09T02:57:58.106Z,48.76
2018-10-09T03:00:24.044Z,48.60
2018-10-09T03:02:50.006Z,48.19
2018-10-09T03:05:15.943Z,48.92
2018-10-09T03:07:41.876Z,49.18
2018-10-09T03:10:07.851Z,48.65
2018-10-09T03:12:33.797Z,49.26
2018-10-09T03:14:59.736Z,48.62
2018-10-09T03:17:25.680Z,49.05
2018-10-09T03:19:51.699Z,48.99
2018-10-09T03:22:17.677Z,48.24
2018-10-09T03:24:43.629Z,48.47
2018-10-09T03:27:09.584Z,47.86
2018-10-09T03:29:35.627Z,47.41
2018-10-09T03:32:01.594Z,47.30
2018-10-09T03:34:27.568Z,47.36
2018-10-09T03:36:53.515Z,47.28
2018-10-09T03:39:19.463Z,47.56
2018-10-09T03:41:45.388Z,47.69
2018-10-09T03:44:11.398Z,47.60
2018-10-09T03:46:37.385Z,47.31
2018-10-09T03:49:03.362Z,47.58
2018-10-09T03:51:29.319Z,48.25
2018-10-09T03:53:55.274Z,47.74
2018-10-09T03:56:21.230Z,48.18
2018-10-09T03:58:47.228Z,48.38
2018-10-09T04:01:13.182Z,48.57
2018-10-09T04:03:39.152Z,47.94
2018-10-09T04:06:05.093Z,48.00
2018-10-09T04:08:31.044Z,48.10
2018-10-09T04:10:57.009Z,48.65
2018-10-09T04:13:22.978Z,48.63
2018-10-09T04:15:48.930Z,48.79
2018-10-09T04:18:14.919Z,48.62
2018-10-09T04:20:40.886Z,49.04
2018-10-09T04:23:06.871Z,48.24
2018-10-09T04:25:32.830Z,48.44
2018-10-09T04:27:58.776Z,48.69
2018-10-09T04:30:24.736Z,48.30
2018-10-09T04:32:50.695Z,48.91
2018-10-09T04:35:16.640Z,48.64
2018-10-09T04:37:42.617Z,48.28
2018-10-09T04:40:08.580Z,48.42
2018-10-09T04:42:34.525Z,48.48
2018-10-09T04:45:00.501Z,48.66
2018-10-09T04:47:26.449Z,47.97
2018-10-09T04:49:52.393Z,48.16
2018-10-09T04:52:18.320Z,49.13
2018-10-09T04:54:44.277Z,48.74
2018-10-09T04:57:10.222Z,48.95
2018-10-09T04:59:36.164Z,48.84
2018-10-09T05:02:02.121Z,49.09
2018-10-09T05:04:28.102Z,48.08
2018-10-09T05:06:54.053Z,48.96
2018-10-09T05:09:20.030Z,48.38
2018-10-09T05:11:45.995Z,48.24
2018-10-09T05:14:11.960Z,48.59
2018-10-09T05:16:37.899Z,48.94
2018-10-09T05:19:03.883Z,48.78
2018-10-09T05:21:29.835Z,48.82
2018-10-09T05:23:55.785Z,48.96
2018-10-09T05:26:21.721Z,48.89
2018-10-09T05:28:47.722Z,48.82
2018-10-09T05:31:13.774Z,49.28
2018-10-09T05:33:39.664Z,49.33
2018-10-09T05:36:05.628Z,49.65
2018-10-09T05:38:31.577Z,49.78
2018-10-09T05:40:57.563Z,49.94
2018-10-09T05:43:23.780Z,49.84
2018-10-09T05:45:49.856Z,49.10
2018-10-09T05:48:15.790Z,49.02
2018-10-09T05:50:41.723Z,49.09
2018-10-09T05:53:07.695Z,49.53
2018-10-09T05:55:33.677Z,49.03
2018-10-09T05:57:59.678Z,49.71
2018-10-09T06:00:25.590Z,49.03
2018-10-09T06:02:51.521Z,48.84
2018-10-09T06:05:17.484Z,48.47
2018-10-09T06:07:43.442Z,48.53
2018-10-09T06:10:09.373Z,48.77
2018-10-09T06:12:35.330Z,48.76
2018-10-09T06:15:01.284Z,49.11
2018-10-09T06:17:27.259Z,48.48
2018-10-09T06:19:53.212Z,48.88
2018-10-09T06:22:19.232Z,48.45
2018-10-09T06:24:45.133Z,48.68
2018-10-09T06:27:11.095Z,48.84
2018-10-09T06:29:37.041Z,48.19
2018-10-09T06:32:02.981Z,48.19
2018-10-09T06:34:28.966Z,48.50
2018-10-09T06:36:54.926Z,47.27
2018-10-09T06:39:20.902Z,47.50
2018-10-09T06:41:46.859Z,46.94
2018-10-09T06:44:12.857Z,46.58
2018-10-09T06:46:38.800Z,46.49
2018-10-09T06:49:04.737Z,46.64
2018-10-09T06:51:30.690Z,46.07
2018-10-09T06:53:56.815Z,46.52
2018-10-09T06:56:22.568Z,45.75
2018-10-09T06:58:48.511Z,46.31
2018-10-09T07:01:14.507Z,45.61
2018-10-09T07:03:40.437Z,44.73
2018-10-09T07:06:06.400Z,44.73
2018-10-09T07:08:32.369Z,44.60
2018-10-09T07:10:58.427Z,43.60
2018-10-09T07:13:24.356Z,44.42
2018-10-09T07:15:50.315Z,43.98
2018-10-09T07:18:16.296Z,43.74
2018-10-09T07:20:42.265Z,42.91
2018-10-09T07:23:08.221Z,43.03
2018-10-09T07:25:34.214Z,43.42
2018-10-09T07:28:00.268Z,43.28
2018-10-09T07:30:26.195Z,43.31
2018-10-09T07:32:52.149Z,42.87
2018-10-09T07:35:18.120Z,43.37
2018-10-09T07:37:44.139Z,43.38
2018-10-09T07:40:10.040Z,43.51
2018-10-09T07:42:35.979Z,43.61
2018-10-09T07:45:01.939Z,43.35
2018-10-09T07:47:27.891Z,43.63
2018-10-09T07:49:53.851Z,43.95
2018-10-09T07:52:19.784Z,43.22
2018-10-09T07:54:45.771Z,43.84
2018-10-09T07:57:11.718Z,43.91
2018-10-09T07:59:37.654Z,43.79
2018-10-09T08:02:03.625Z,44.60
2018-10-09T08:04:29.583Z,43.73
2018-10-09T08:06:55.539Z,43.59
2018-10-09T08:09:21.538Z,43.50
2018-10-09T08:11:47.472Z,43.84
2018-10-09T08:14:13.426Z,44.30
2018-10-09T08:16:39.378Z,44.54
2018-10-09T08:19:05.355Z,43.56
2018-10-09T08:21:31.345Z,44.32
2018-10-09T08:23:57.320Z,43.94
2018-10-09T08:26:23.280Z,43.55
2018-10-09T08:28:49.226Z,43.26
2018-10-09T08:31:15.225Z,44.09
2018-10-09T08:33:41.175Z,43.39
2018-10-09T08:36:07.154Z,44.63
2018-10-09T08:38:33.116Z,43.35
2018-10-09T08:40:59.092Z,43.30
2018-10-09T08:43:25.056Z,43.20
2018-10-09T08:45:51.035Z,43.53
2018-10-09T08:48:16.997Z,43.46
2018-10-09T08:50:42.962Z,43.61
2018-10-09T08:53:08.945Z,43.42
2018-10-09T08:55:34.908Z,43.82
2018-10-09T08:58:00.876Z,43.29
2018-10-09T09:00:26.822Z,43.97
2018-10-09T09:02:52.771Z,43.87
2018-10-09T09:05:18.733Z,43.58
2018-10-09T09:07:44.699Z,43.40
2018-10-09T09:10:10.627Z,42.90
2018-10-09T09:12:36.636Z,42.26
2018-10-09T09:15:02.585Z,43.82
2018-10-09T09:17:28.556Z,43.92
2018-10-09T09:19:54.543Z,43.57
2018-10-09T09:22:20.519Z,43.15
2018-10-09T09:24:46.483Z,43.24
2018-10-09T09:27:12.446Z,42.78
2018-10-09T09:29:38.381Z,42.30
2018-10-09T09:32:04.336Z,42.67
2018-10-09T09:34:30.270Z,42.60
2018-10-09T09:36:56.215Z,42.44
2018-10-09T09:39:22.136Z,41.89
2018-10-09T09:41:48.100Z,43.15
2018-10-09T09:44:14.054Z,42.93
2018-10-09T09:46:40.000Z,42.14
2018-10-09T09:49:06.047Z,42.28
2018-10-09T09:51:31.999Z,41.40
2018-10-09T09:53:57.937Z,42.67
2018-10-09T09:56:23.908Z,42.89
2018-10-09T09:58:50.137Z,42.67
2018-10-09T10:01:15.839Z,41.69
2018-10-09T10:03:41.834Z,42.11
2018-10-09T10:06:07.751Z,42.49
2018-10-09T10:08:33.685Z,42.52
2018-10-09T10:10:59.641Z,43.46
2018-10-09T10:13:25.662Z,43.63
2018-10-09T10:15:51.672Z,42.63
2018-10-09T10:18:17.604Z,43.52
2018-10-09T10:20:43.556Z,42.45
2018-10-09T10:23:09.498Z,43.07
2018-10-09T10:25:35.453Z,42.58
2018-10-09T10:28:01.437Z,43.35
2018-10-09T10:30:27.496Z,43.84
2018-10-09T10:32:53.450Z,43.28
2018-10-09T10:35:19.434Z,42.91
2018-10-09T10:37:45.383Z,43.35
2018-10-09T10:40:11.343Z,43.62
2018-10-09T10:42:37.293Z,42.61
2018-10-09T10:45:03.264Z,43.21
2018-10-09T10:47:29.234Z,43.60
2018-10-09T10:49:55.202Z,42.68
2018-10-09T10:52:21.153Z,43.40
2018-10-09T10:54:47.156Z,43.61
2018-10-09T10:57:13.073Z,44.16
2018-10-09T10:59:39.033Z,43.92
2018-10-09T11:02:04.986Z,43.25
2018-10-09T11:04:30.928Z,43.03
2018-10-09T11:06:56.930Z,42.90
2018-10-09T11:09:22.853Z,43.17
2018-10-09T11:11:48.786Z,44.05
2018-10-09T11:14:14.728Z,43.44
2018-10-09T11:16:40.719Z,43.48
2018-10-09T11:19:06.668Z,44.51
2018-10-09T11:21:32.685Z,43.53
2018-10-09T11:23:58.597Z,43.15
2018-10-09T11:26:24.525Z,42.75
2018-10-09T11:28:50.485Z,43.16
2018-10-09T11:31:16.456Z,43.89
2018-10-09T11:33:42.396Z,43.49
2018-10-09T11:36:08.346Z,43.24
2018-10-09T11:38:34.293Z,43.11
2018-10-09T11:41:00.263Z,43.57
2018-10-09T11:43:26.243Z,43.23
2018-10-09T11:45:52.174Z,42.82
2018-10-09T11:48:18.146Z,43.55
2018-10-09T11:50:44.089Z,43.71
2018-10-09T11:53:10.091Z,43.66
2018-10-09T11:55:36.043Z,44.01
2018-10-09T11:58:02.014Z,43.48
2018-10-09T12:00:27.950Z,43.48
2018-10-09T12:02:53.942Z,43.58
2018-10-09T12:05:19.854Z,43.55
2018-10-09T12:07:45.811Z,43.78
2018-10-09T12:10:11.791Z,43.49
2018-10-09T12:12:37.756Z,44.46
2018-10-09T12:15:03.720Z,44.13
2018-10-09T12:17:29.947Z,44.06
2018-10-09T12:19:55.885Z,43.09
2018-10-09T12:22:21.851Z,43.41
2018-10-09T12:24:48.051Z,43.43
2018-10-09T12:27:14.056Z,43.87
2018-10-09T12:29:39.970Z,44.47
2018-10-09T12:32:05.926Z,44.17
2018-10-09T12:34:31.868Z,44.82
2018-10-09T12:36:57.789Z,43.74
2018-10-09T12:39:23.739Z,43.62
2018-10-09T12:41:49.733Z,44.08
2018-10-09T12:44:15.969Z,44.06
2018-10-09T12:46:41.910Z,44.94
2018-10-09T12:49:07.908Z,43.64
2018-10-09T12:51:33.870Z,43.60
2018-10-09T12:54:00.016Z,43.53
2018-10-09T12:56:25.941Z,43.70
2018-10-09T12:58:51.941Z,43.67
2018-10-09T13:01:17.868Z,43.46
2018-10-09T13:03:43.816Z,43.45
2018-10-09T13:06:09.820Z,43.34
2018-10-09T13:08:35.785Z,43.16
2018-10-09T13:11:01.772Z,43.40
2018-10-09T13:13:27.737Z,43.57
2018-10-09T13:15:53.705Z,44.11
2018-10-09T13:18:19.636Z,43.66
2018-10-09T13:20:45.632Z,43.73
2018-10-09T13:23:11.599Z,43.25
2018-10-09T13:25:37.567Z,43.34
2018-10-09T13:28:03.531Z,43.49
2018-10-09T13:30:29.498Z,44.63
2018-10-09T13:32:55.432Z,44.13
2018-10-09T13:35:21.401Z,43.64
2018-10-09T13:37:47.372Z,43.86
2018-10-09T13:40:13.343Z,43.21
2018-10-09T13:42:39.296Z,43.32
2018-10-09T13:45:05.266Z,42.89
2018-10-09T13:47:31.495Z,42.74
2018-10-09T13:49:57.332Z,43.77
2018-10-09T13:52:23.293Z,43.87
2018-10-09T13:54:49.260Z,42.87
2018-10-09T13:57:15.215Z,43.71
2018-10-09T13:59:41.176Z,42.75
2018-10-09T14:02:07.110Z,43.16
2018-10-09T14:04:33.083Z,43.21
2018-10-09T14:06:59.017Z,42.64
2018-10-09T14:09:24.949Z,43.17
2018-10-09T14:11:50.903Z,42.86
2018-10-09T14:14:16.876Z,42.80
2018-10-09T14:16:42.812Z,42.70
2018-10-09T14:19:08.793Z,42.52
2018-10-09T14:21:34.756Z,42.73
2018-10-09T14:24:00.707Z,44.13
2018-10-09T14:26:26.680Z,43.45
2018-10-09T14:28:52.646Z,43.48
2018-10-09T14:31:18.660Z,42.63
2018-10-09T14:33:44.616Z,42.45
2018-10-09T14:36:10.578Z,42.39
2018-10-09T14:38:36.535Z,43.56
2018-10-09T14:41:02.481Z,43.14
2018-10-09T14:43:28.439Z,43.26
2018-10-09T14:45:54.384Z,42.82
2018-10-09T14:48:20.384Z,42.49
2018-10-09T14:50:46.348Z,43.26
2018-10-09T14:53:12.309Z,42.57
2018-10-09T14:55:38.269Z,43.29
2018-10-09T14:58:04.229Z,42.51
2018-10-09T15:00:30.205Z,43.26
2018-10-09T15:02:56.170Z,42.84
2018-10-09T15:05:22.124Z,42.55
2018-10-09T15:07:48.075Z,42.02
2018-10-09T15:10:14.079Z,42.12
2018-10-09T15:12:40.039Z,42.46
2018-10-09T15:15:06.018Z,42.15
2018-10-09T15:17:31.969Z,41.98
2018-10-09T15:19:57.933Z,42.46
2018-10-09T15:22:23.869Z,42.54
2018-10-09T15:24:49.826Z,42.96
2018-10-09T15:27:15.801Z,42.24
2018-10-09T15:29:41.772Z,42.92
2018-10-09T15:32:07.704Z,42.48
2018-10-09T15:34:33.800Z,42.13
2018-10-09T15:36:59.739Z,41.75
2018-10-09T15:39:25.745Z,42.28
2018-10-09T15:41:51.697Z,41.67
2018-10-09T15:44:17.663Z,42.06
2018-10-09T15:46:43.621Z,41.83
2018-10-09T15:49:09.584Z,41.67
2018-10-09T15:51:35.525Z,41.19
2018-10-09T15:54:01.502Z,41.48
2018-10-09T15:56:27.458Z,41.02
2018-10-09T15:58:53.423Z,40.91
2018-10-09T16:01:19.439Z,41.42
2018-10-09T16:03:45.442Z,42.20
2018-10-09T16:06:11.500Z,41.59
2018-10-09T16:08:37.482Z,41.47
2018-10-09T16:11:03.436Z,41.52
2018-10-09T16:13:29.378Z,42.24
2018-10-09T16:15:55.358Z,41.17
2018-10-09T16:18:21.314Z,41.28
2018-10-09T16:20:47.335Z,41.77
2018-10-09T16:23:13.218Z,41.38
2018-10-09T16:25:39.180Z,40.76
2018-10-09T16:28:05.140Z,41.15
2018-10-09T16:30:31.083Z,41.26
2018-10-09T16:32:57.027Z,41.55
2018-10-09T16:35:23.060Z,41.27
2018-10-09T16:37:49.042Z,41.64
2018-10-09T16:40:15.102Z,41.61
2018-10-09T16:42:41.071Z,40.92
2018-10-09T16:45:07.070Z,41.07
2018-10-09T16:47:33.188Z,41.39
2018-10-09T16:49:59.128Z,41.15
2018-10-09T16:52:25.063Z,41.67
2018-10-09T16:54:51.048Z,41.26
2018-10-09T16:57:17.017Z,41.48
2018-10-09T16:59:42.969Z,42.09
2018-10-09T17:02:08.960Z,42.03
2018-10-09T17:04:34.907Z,41.63
2018-10-09T17:07:00.885Z,42.26
2018-10-09T17:09:26.915Z,41.85
2018-10-09T17:11:53.094Z,42.26
2018-10-09T17:14:19.074Z,41.90
2018-10-09T17:16:45.068Z,42.67
2018-10-09T17:19:12.081Z,42.05
2018-10-09T17:21:38.052Z,42.80
2018-10-09T17:24:04.040Z,43.52
2018-10-09T17:26:30.006Z,43.55
2018-10-09T17:28:55.993Z,42.56
2018-10-09T17:31:21.992Z,43.19
2018-10-09T17:33:47.936Z,42.32
2018-10-09T17:36:13.892Z,42.54
2018-10-09T17:38:39.864Z,42.36
2018-10-09T17:41:05.833Z,42.80
2018-10-09T17:43:31.789Z,42.11
2018-10-09T17:45:57.761Z,42.44
2018-10-09T17:48:23.715Z,42.00
2018-10-09T17:50:49.715Z,42.02
2018-10-09T17:53:15.656Z,41.40
2018-10-09T17:55:41.616Z,42.04
2018-10-09T17:58:07.573Z,42.06
2018-10-09T18:00:33.902Z,42.50
2018-10-09T18:02:59.925Z,42.40
2018-10-09T18:05:25.888Z,42.25
2018-10-09T18:07:51.876Z,43.01
2018-10-09T18:10:17.852Z,43.49
2018-10-09T18:12:43.801Z,42.79
2018-10-09T18:15:09.835Z,43.62
2018-10-09T18:17:35.780Z,44.39
2018-10-09T18:20:01.766Z,43.90
2018-10-09T18:22:27.738Z,43.67
2018-10-09T18:24:53.734Z,44.34
2018-10-09T18:27:19.791Z,45.00
2018-10-09T18:29:45.791Z,45.09
2018-10-09T18:32:11.764Z,45.60
2018-10-09T18:34:37.698Z,45.10
2018-10-09T18:37:03.682Z,46.54
2018-10-09T18:39:29.651Z,51.02
2018-10-09T18:41:55.703Z,50.67
2018-10-09T18:44:21.721Z,50.70
2018-10-09T18:46:47.676Z,50.00
2018-10-09T18:49:14.664Z,49.61
2018-10-09T18:51:40.766Z,49.05
2018-10-09T18:54:06.642Z,48.44
2018-10-09T18:56:32.623Z,47.44
2018-10-09T18:58:58.573Z,46.09
2018-10-09T19:01:24.538Z,45.90
2018-10-09T19:03:50.469Z,46.17
2018-10-09T19:06:16.431Z,45.62
2018-10-09T19:08:42.383Z,45.96
2018-10-09T19:11:08.381Z,45.37
2018-10-09T19:13:34.308Z,45.83
2018-10-09T19:16:00.262Z,46.67
2018-10-09T19:18:26.258Z,46.71
2018-10-09T19:20:52.241Z,47.01
2018-10-09T19:23:18.196Z,46.57
2018-10-09T19:25:44.141Z,47.26
2018-10-09T19:28:10.097Z,46.36
2018-10-09T19:30:36.062Z,46.21
2018-10-09T19:33:02.050Z,46.33
2018-10-09T19:35:28.045Z,46.33
2018-10-09T19:37:53.995Z,46.28
2018-10-09T19:40:19.958Z,46.03
2018-10-09T19:42:45.932Z,46.31
2018-10-09T19:45:11.917Z,46.36
2018-10-09T19:47:37.874Z,46.66
2018-10-09T19:50:03.813Z,46.65
2018-10-09T19:52:29.793Z,46.31
2018-10-09T19:54:55.794Z,46.30
2018-10-09T19:57:21.743Z,45.48
2018-10-09T19:59:47.723Z,45.48
2018-10-09T20:02:13.684Z,45.59
2018-10-09T20:04:39.639Z,46.08
2018-10-09T20:07:05.639Z,46.32
2018-10-09T20:09:31.605Z,45.68
2018-10-09T20:11:57.640Z,45.94
2018-10-09T20:14:23.677Z,45.75
2018-10-09T20:16:49.570Z,46.36
2018-10-09T20:19:15.622Z,45.68
2018-10-09T20:21:41.611Z,46.47
2018-10-09T20:24:07.597Z,45.70
2018-10-09T20:26:33.549Z,46.23
2018-10-09T20:28:59.518Z,45.45
2018-10-09T20:31:25.510Z,45.46
2018-10-09T20:33:51.566Z,45.60
2018-10-09T20:36:17.568Z,45.61
2018-10-09T20:38:43.566Z,45.07
2018-10-09T20:41:09.526Z,45.82
2018-10-09T20:43:35.507Z,45.96
2018-10-09T20:46:01.525Z,46.25
2018-10-09T20:48:27.666Z,46.09
2018-10-09T20:50:53.610Z,46.25
2018-10-09T20:53:19.618Z,46.64
2018-10-09T20:55:45.587Z,46.57
2018-10-09T20:58:11.547Z,46.20
2018-10-09T21:00:37.541Z,45.76
2018-10-09T21:03:03.661Z,45.66
2018-10-09T21:05:29.637Z,45.58
2018-10-09T21:07:55.619Z,45.46
2018-10-09T21:10:21.582Z,45.48
2018-10-09T21:12:47.747Z,46.19
2018-10-09T21:15:13.713Z,46.29
2018-10-09T21:17:39.813Z,46.68
2018-10-09T21:20:05.778Z,45.83
2018-10-09T21:22:31.737Z,46.53
2018-10-09T21:24:57.734Z,45.95
2018-10-09T21:27:23.689Z,46.05
2018-10-09T21:29:49.671Z,46.18
2018-10-09T21:32:15.605Z,46.83
2018-10-09T21:34:41.557Z,47.06
2018-10-09T21:37:07.510Z,46.94
2018-10-09T21:39:33.446Z,46.72
2018-10-09T21:41:59.425Z,46.20
2018-10-09T21:44:25.474Z,46.79
2018-10-09T21:46:51.453Z,46.36
2018-10-09T21:49:17.426Z,46.68
2018-10-09T21:51:43.408Z,47.07
2018-10-09T21:54:09.388Z,47.21
2018-10-09T21:56:35.359Z,47.35
2018-10-09T21:59:01.337Z,46.83
2018-10-09T22:01:27.335Z,47.77
2018-10-09T22:03:53.288Z,47.33
2018-10-09T22:06:19.236Z,47.47
2018-10-09T22:08:45.211Z,47.02
2018-10-09T22:11:11.233Z,47.26
2018-10-09T22:13:37.237Z,46.59
2018-10-09T22:16:03.213Z,46.66
2018-10-09T22:18:29.178Z,46.15
2018-10-09T22:20:55.160Z,46.33
2018-10-09T22:23:21.221Z,46.39
2018-10-09T22:25:47.165Z,46.38
2018-10-09T22:28:13.107Z,47.09
2018-10-09T22:30:39.088Z,47.51
2018-10-09T22:33:05.092Z,47.39
2018-10-09T22:35:31.028Z,46.29
2018-10-09T22:37:56.977Z,45.87
2018-10-09T22:40:22.931Z,45.33
2018-10-09T22:42:48.879Z,45.50
2018-10-09T22:45:14.830Z,46.59
2018-10-09T22:47:40.804Z,46.95
2018-10-09T22:50:06.778Z,47.07
2018-10-09T22:52:32.755Z,47.30
2018-10-09T22:54:58.713Z,47.38
2018-10-09T22:57:24.669Z,47.06
2018-10-09T22:59:50.640Z,47.00
2018-10-09T23:02:16.595Z,47.41
2018-10-09T23:04:42.530Z,46.86
2018-10-09T23:07:08.505Z,46.94
2018-10-09T23:09:34.475Z,46.98
2018-10-09T23:12:00.432Z,46.54
2018-10-09T23:14:26.403Z,46.57
2018-10-09T23:16:52.396Z,46.01
2018-10-09T23:19:18.364Z,46.57
2018-10-09T23:21:44.310Z,47.04
2018-10-09T23:24:10.291Z,46.56
2018-10-09T23:26:36.253Z,47.33
2018-10-09T23:29:02.248Z,47.09
2018-10-09T23:31:28.202Z,47.03
2018-10-09T23:33:54.147Z,47.25
2018-10-09T23:36:20.101Z,47.29
2018-10-09T23:38:46.063Z,47.04
2018-10-09T23:41:12.007Z,47.23
2018-10-09T23:43:37.967Z,46.89
2018-10-09T23:46:03.950Z,47.43
2018-10-09T23:48:29.901Z,47.37
2018-10-09T23:50:55.908Z,47.46
2018-10-09T23:53:21.857Z,47.12
2018-10-09T23:55:47.824Z,47.13
2018-10-09T23:58:13.811Z,47.64
